Time;durP1;ratioP1;P1;durP2;ratioP2;P2;SDS_P1;SDS_P2;PMS_P1;PMS_P2;Temp;Humidity;BMP_temperature;BMP_pressure;BME280_temperature;BME280_humidity;BME280_pressure;Samples;Min_cycle;Max_cycle;Signal;HPM_P1;HPM_P2
2022/04/20 00:00:35;;;;;;;1.88;1.77;;;10.20;69.90;;;;;;4973645;28;20037;-46
2022/04/20 00:03:02;;;;;;;6.32;1.70;;;10.20;70.20;;;;;;4972481;28;20023;-46
2022/04/20 00:05:28;;;;;;;5.18;1.83;;;10.20;70.10;;;;;;4973624;28;20033;-46
2022/04/20 00:07:53;;;;;;;3.38;1.90;;;10.10;70.40;;;;;;4973482;28;20105;-45
2022/04/20 00:10:19;;;;;;;2.08;1.70;;;10.00;70.60;;;;;;4988365;28;20026;-50
2022/04/20 00:12:44;;;;;;;5.82;2.40;;;9.90;70.90;;;;;;4973679;28;20031;-47
2022/04/20 00:15:10;;;;;;;1.60;1.50;;;9.90;71.10;;;;;;4973591;28;20039;-46
2022/04/20 00:17:35;;;;;;;3.65;1.73;;;9.80;71.10;;;;;;4971533;28;20061;-46
2022/04/20 00:20:01;;;;;;;2.45;2.13;;;9.80;71.40;;;;;;4973921;28;20027;-46
2022/04/20 00:22:27;;;;;;;4.65;2.30;;;9.70;71.40;;;;;;4979977;28;20027;-48
2022/04/20 00:24:52;;;;;;;1.95;1.70;;;9.60;71.60;;;;;;4983338;28;20031;-45
2022/04/20 00:27:18;;;;;;;3.00;1.95;;;9.60;71.80;;;;;;4991510;28;20113;-48
2022/04/20 00:29:43;;;;;;;1.98;1.80;;;9.50;71.70;;;;;;4972019;28;20540;-42
2022/04/20 00:32:09;;;;;;;2.15;2.00;;;9.50;71.70;;;;;;4973414;28;20027;-48
2022/04/20 00:34:34;;;;;;;1.98;1.70;;;9.50;71.90;;;;;;4973274;28;20031;-45
2022/04/20 00:37:00;;;;;;;2.40;2.20;;;9.50;71.90;;;;;;4972891;28;20077;-45
2022/04/20 00:39:25;;;;;;;7.20;1.83;;;9.50;72.00;;;;;;4973013;28;20039;-48
2022/04/20 00:41:52;;;;;;;3.50;2.08;;;9.40;72.10;;;;;;4973230;28;20031;-49
2022/04/20 00:44:18;;;;;;;4.70;2.03;;;9.40;72.30;;;;;;4973051;28;20019;-49
2022/04/20 00:46:46;;;;;;;4.78;2.55;;;9.30;72.50;;;;;;4973030;28;20031;-45
2022/04/20 00:49:13;;;;;;;3.33;1.75;;;9.30;72.60;;;;;;4972859;28;20479;-49
2022/04/20 00:51:53;;;;;;;1.92;1.83;;;9.30;72.80;;;;;;4973030;28;20545;-50
2022/04/20 00:54:19;;;;;;;4.45;2.08;;;9.20;72.90;;;;;;4987783;28;20081;-46
2022/04/20 00:56:45;;;;;;;2.78;2.00;;;9.20;73.10;;;;;;4972489;28;20483;-43
2022/04/20 00:59:12;;;;;;;3.47;2.13;;;9.10;73.40;;;;;;4972941;28;20297;-47
2022/04/20 01:01:38;;;;;;;3.67;2.08;;;9.10;73.50;;;;;;4972837;28;20027;-47
2022/04/20 01:04:03;;;;;;;2.40;2.20;;;9.10;73.80;;;;;;4973316;28;20157;-48
2022/04/20 01:06:29;;;;;;;4.93;2.05;;;9.00;73.90;;;;;;4973433;28;20126;-46
2022/04/20 01:08:54;;;;;;;2.30;1.85;;;9.00;74.10;;;;;;4972604;28;20026;-44
2022/04/20 01:11:22;;;;;;;4.65;2.53;;;9.00;74.30;;;;;;4972527;28;20027;-52
2022/04/20 01:13:48;;;;;;;5.28;2.08;;;8.90;74.70;;;;;;4972918;28;20030;-43
2022/04/20 01:16:13;;;;;;;3.08;2.17;;;8.80;74.80;;;;;;4972823;28;20035;-49
2022/04/20 01:18:46;;;;;;;1.85;1.70;;;8.80;75.00;;;;;;4972442;28;20078;-48
2022/04/20 01:21:12;;;;;;;2.47;2.28;;;8.70;75.20;;;;;;4972668;28;20038;-48
2022/04/20 01:23:38;;;;;;;11.73;3.20;;;8.70;75.60;;;;;;4972686;28;20023;-45
2022/04/20 01:26:10;;;;;;;2.40;1.83;;;8.60;76.00;;;;;;4987505;28;20159;-48
2022/04/20 01:28:38;;;;;;;2.33;2.13;;;8.60;76.10;;;;;;4973964;28;20130;-41
2022/04/20 01:31:04;;;;;;;2.92;2.25;;;8.60;76.20;;;;;;4976436;28;20035;-50
2022/04/20 01:33:30;;;;;;;3.20;1.98;;;8.60;76.10;;;;;;4991422;28;20061;-50
2022/04/20 01:35:56;;;;;;;4.13;2.10;;;8.50;76.30;;;;;;4976467;28;20066;-50
2022/04/20 01:38:21;;;;;;;4.38;2.30;;;8.50;76.40;;;;;;4975950;28;20491;-49
2022/04/20 01:40:47;;;;;;;3.58;2.00;;;8.50;76.40;;;;;;4976146;28;20109;-46
2022/04/20 01:43:12;;;;;;;3.25;2.38;;;8.50;76.30;;;;;;4976276;28;20054;-46
2022/04/20 01:45:38;;;;;;;4.40;2.00;;;8.40;76.60;;;;;;4974985;28;20027;-46
2022/04/20 01:48:03;;;;;;;3.97;2.40;;;8.30;76.80;;;;;;4975951;28;20391;-42
2022/04/20 01:50:29;;;;;;;9.40;2.42;;;8.30;77.20;;;;;;4976218;28;20519;-49
2022/04/20 01:52:55;;;;;;;4.22;2.15;;;8.20;77.40;;;;;;4975947;28;20041;-47
2022/04/20 01:55:21;;;;;;;4.35;2.30;;;8.20;77.60;;;;;;4992262;28;20557;-45
2022/04/20 01:57:46;;;;;;;2.50;2.30;;;8.20;77.80;;;;;;4975099;28;20507;-45
2022/04/20 02:00:12;;;;;;;2.83;2.63;;;8.10;77.80;;;;;;4976240;28;20069;-47
2022/04/20 02:02:38;;;;;;;2.97;2.22;;;8.10;78.00;;;;;;4976015;28;20042;-54
2022/04/20 02:05:09;;;;;;;4.22;2.28;;;8.00;78.20;;;;;;4975995;28;20022;-48
2022/04/20 02:07:35;;;;;;;2.58;1.90;;;8.00;78.20;;;;;;4975532;28;20023;-40
2022/04/20 02:10:03;;;;;;;10.55;2.40;;;7.90;78.40;;;;;;4975806;28;20558;-50
2022/04/20 02:12:29;;;;;;;2.80;2.58;;;7.90;78.50;;;;;;4975872;28;20031;-49
2022/04/20 02:14:54;;;;;;;5.28;2.40;;;7.90;78.50;;;;;;4975794;28;20030;-46
2022/04/20 02:17:21;;;;;;;2.65;2.33;;;7.90;78.50;;;;;;4975380;28;20031;-47
2022/04/20 02:19:46;;;;;;;2.63;2.42;;;7.80;78.60;;;;;;4975531;28;20027;-45
2022/04/20 02:22:12;;;;;;;2.20;2.08;;;7.80;78.90;;;;;;4975651;28;20027;-47
2022/04/20 02:24:37;;;;;;;3.03;2.20;;;7.80;79.00;;;;;;4975543;28;20081;-49
2022/04/20 02:27:03;;;;;;;2.60;1.95;;;7.80;79.20;;;;;;4975481;28;20026;-42
2022/04/20 02:29:28;;;;;;;5.30;2.67;;;7.70;79.40;;;;;;4975340;28;20548;-45
2022/04/20 02:31:54;;;;;;;10.73;2.35;;;7.70;79.50;;;;;;4975485;28;20031;-47
2022/04/20 02:34:20;;;;;;;5.43;2.42;;;7.60;79.80;;;;;;4975413;28;20061;-49
2022/04/20 02:36:45;;;;;;;3.00;2.42;;;7.60;80.00;;;;;;4974862;28;20037;-44
2022/04/20 02:39:11;;;;;;;3.38;2.33;;;7.60;80.20;;;;;;4974716;28;20026;-50
2022/04/20 02:41:38;;;;;;;3.67;2.40;;;7.50;80.20;;;;;;4973390;28;20030;-48
2022/04/20 02:44:07;;;;;;;2.47;2.30;;;7.50;80.30;;;;;;4975319;28;20022;-42
2022/04/20 02:46:33;;;;;;;4.38;2.50;;;7.50;80.60;;;;;;4975061;28;20073;-44
2022/04/20 02:48:59;;;;;;;7.53;2.42;;;7.40;80.80;;;;;;4974774;28;20051;-51
2022/04/20 02:51:24;;;;;;;4.13;2.50;;;7.40;81.00;;;;;;4974911;28;20563;-50
2022/04/20 02:53:50;;;;;;;3.70;2.17;;;7.40;81.00;;;;;;4973795;28;20077;-47
2022/04/20 02:56:15;;;;;;;4.05;2.70;;;7.40;81.00;;;;;;4974864;28;20035;-48
2022/04/20 02:58:41;;;;;;;5.75;2.17;;;7.40;81.00;;;;;;4974789;28;20390;-51
2022/04/20 03:01:06;;;;;;;9.68;2.85;;;7.40;81.30;;;;;;4974694;28;20542;-49
2022/04/20 03:03:33;;;;;;;2.47;2.28;;;7.30;81.60;;;;;;4974984;28;20419;-47
2022/04/20 03:05:58;;;;;;;2.78;2.58;;;7.20;81.80;;;;;;4989602;28;20045;-47
2022/04/20 03:08:24;;;;;;;3.13;1.88;;;7.20;82.30;;;;;;4974989;28;20031;-45
2022/04/20 03:10:51;;;;;;;2.47;2.17;;;7.20;82.60;;;;;;4974736;28;20022;-45
2022/04/20 03:13:16;;;;;;;7.47;2.75;;;7.10;83.00;;;;;;4991174;28;20550;-44
2022/04/20 03:15:42;;;;;;;3.30;2.47;;;7.00;83.30;;;;;;4975603;28;20030;-45
2022/04/20 03:18:08;;;;;;;4.82;2.55;;;6.90;84.00;;;;;;4974436;28;20023;-43
2022/04/20 03:20:33;;;;;;;3.22;2.70;;;6.80;84.40;;;;;;4974767;28;20102;-46
2022/04/20 03:22:59;;;;;;;2.25;2.10;;;6.70;84.80;;;;;;4974582;28;20030;-44
2022/04/20 03:25:24;;;;;;;6.30;2.92;;;6.60;85.10;;;;;;4974558;28;20029;-49
2022/04/20 03:27:50;;;;;;;3.00;2.35;;;6.60;85.50;;;;;;4972861;28;20143;-48
2022/04/20 03:30:15;;;;;;;3.58;2.15;;;6.50;85.60;;;;;;4974296;28;20062;-49
2022/04/20 03:32:41;;;;;;;2.47;2.05;;;6.50;85.70;;;;;;4974294;28;20409;-49
2022/04/20 03:35:08;;;;;;;2.67;2.47;;;6.50;85.90;;;;;;4974307;28;20098;-47
2022/04/20 03:37:33;;;;;;;3.63;2.55;;;6.50;86.10;;;;;;4974245;28;20030;-49
2022/04/20 03:39:59;;;;;;;4.07;2.58;;;6.50;86.20;;;;;;4974031;28;20526;-48
2022/04/20 03:42:26;;;;;;;4.50;2.63;;;6.40;86.40;;;;;;4974162;28;20026;-49
2022/04/20 03:44:52;;;;;;;8.40;3.55;;;6.40;86.50;;;;;;4974085;28;20022;-41
2022/04/20 03:47:17;;;;;;;4.28;2.67;;;6.40;86.60;;;;;;4973866;28;20077;-45
2022/04/20 03:49:43;;;;;;;4.28;2.58;;;6.50;86.60;;;;;;4973769;28;20066;-50
2022/04/20 03:52:09;;;;;;;4.20;2.60;;;6.40;86.60;;;;;;4973904;28;20106;-46
2022/04/20 03:54:35;;;;;;;8.15;2.75;;;6.40;86.80;;;;;;4974019;28;20487;-46
2022/04/20 03:57:03;;;;;;;4.55;2.50;;;6.40;86.90;;;;;;4973898;28;20033;-45
2022/04/20 03:59:33;;;;;;;6.22;2.83;;;6.40;86.70;;;;;;4973805;28;20023;-48
2022/04/20 04:01:59;;;;;;;5.47;2.50;;;6.30;86.90;;;;;;4973795;28;20015;-47
2022/04/20 04:04:24;;;;;;;6.55;2.80;;;6.30;87.00;;;;;;4974015;28;20093;-49
2022/04/20 04:06:50;;;;;;;3.78;2.33;;;6.30;86.90;;;;;;4973747;28;20026;-43
2022/04/20 04:09:16;;;;;;;2.47;2.28;;;6.30;87.20;;;;;;4973343;28;20046;-52
2022/04/20 04:11:41;;;;;;;2.63;2.35;;;6.30;87.20;;;;;;4972345;28;20026;-47
2022/04/20 04:14:07;;;;;;;4.25;2.35;;;6.30;87.20;;;;;;4973433;28;20026;-47
2022/04/20 04:16:36;;;;;;;4.15;2.42;;;6.30;87.20;;;;;;4973656;28;20079;-47
2022/04/20 04:19:06;;;;;;;2.80;2.28;;;6.40;87.20;;;;;;4973274;28;20028;-46
2022/04/20 04:21:35;;;;;;;5.07;2.60;;;6.40;87.10;;;;;;4973934;28;20015;-47
2022/04/20 04:24:00;;;;;;;2.90;2.60;;;6.40;87.70;;;;;;4973651;28;20027;-46
2022/04/20 04:26:28;;;;;;;6.38;3.28;;;6.30;87.90;;;;;;4973484;28;20027;-48
2022/04/20 04:28:53;;;;;;;3.95;2.67;;;6.40;88.20;;;;;;4973105;28;20022;-44
2022/04/20 04:31:19;;;;;;;3.83;2.45;;;6.30;88.50;;;;;;4973314;28;20630;-50
2022/04/20 04:33:44;;;;;;;7.20;3.15;;;6.30;89.10;;;;;;4973310;28;20035;-49
2022/04/20 04:36:10;;;;;;;6.90;3.10;;;6.30;89.20;;;;;;4973594;28;20023;-48
2022/04/20 04:38:36;;;;;;;2.80;2.60;;;6.30;89.80;;;;;;4973060;28;20050;-47
2022/04/20 04:41:01;;;;;;;4.95;2.63;;;6.20;89.80;;;;;;4972832;28;20035;-51
2022/04/20 04:43:27;;;;;;;3.92;3.17;;;6.20;90.00;;;;;;4973271;28;20041;-49
2022/04/20 04:48:36;;;;;;;4.90;3.40;;;6.20;90.40;;;;;;4972856;28;20050;-48
2022/04/20 04:51:07;;;;;;;9.18;3.17;;;6.20;90.50;;;;;;4971601;28;20022;-53
2022/04/20 04:53:32;;;;;;;4.22;3.38;;;6.20;90.50;;;;;;4973184;28;20447;-51
2022/04/20 04:55:58;;;;;;;9.32;3.13;;;6.20;90.60;;;;;;4972875;28;20033;-46
2022/04/20 04:58:23;;;;;;;5.75;3.17;;;6.30;90.40;;;;;;4987504;28;20121;-47
2022/04/20 05:00:49;;;;;;;3.78;2.67;;;6.50;90.30;;;;;;4972855;28;20073;-50
2022/04/20 05:03:16;;;;;;;4.82;2.50;;;6.60;90.00;;;;;;4972563;28;20023;-48
2022/04/20 05:05:43;;;;;;;2.90;2.65;;;6.70;89.70;;;;;;4973056;28;20124;-48
2022/04/20 05:08:09;;;;;;;3.08;2.60;;;6.60;89.90;;;;;;4973083;28;20046;-50
2022/04/20 05:10:35;;;;;;;3.80;3.05;;;6.50;90.10;;;;;;4972732;28;20031;-46
2022/04/20 05:13:00;;;;;;;2.90;2.60;;;6.60;90.20;;;;;;4973178;28;20034;-45
2022/04/20 05:15:27;;;;;;;3.35;2.60;;;6.50;90.20;;;;;;4972855;28;20030;-47
2022/04/20 05:17:52;;;;;;;4.65;3.22;;;6.50;90.10;;;;;;4972371;28;20482;-50
2022/04/20 05:20:21;;;;;;;7.55;2.78;;;6.60;90.10;;;;;;4972837;28;20089;-47
2022/04/20 05:22:47;;;;;;;3.30;2.97;;;6.80;90.00;;;;;;4972681;28;20380;-50
2022/04/20 05:25:12;;;;;;;3.55;2.72;;;6.80;89.70;;;;;;4972379;28;20030;-47
2022/04/20 05:27:38;;;;;;;5.72;2.90;;;7.00;89.40;;;;;;4987278;28;20026;-48
2022/04/20 05:30:05;;;;;;;2.95;2.28;;;7.20;88.70;;;;;;4971647;28;20027;-48
2022/04/20 05:32:31;;;;;;;8.35;2.95;;;7.50;87.50;;;;;;4971010;28;20121;-51
2022/04/20 05:34:56;;;;;;;5.20;3.25;;;7.90;85.90;;;;;;4971778;28;20558;-50
2022/04/20 05:42:50;;;;;;;7.00;4.00;;;8.00;85.10;;;;;;4967399;28;20046;-49
2022/04/20 05:45:16;;;;;;;2.85;2.63;;;8.20;84.70;;;;;;4971707;28;20030;-48
2022/04/20 05:47:41;;;;;;;4.30;2.80;;;8.20;84.80;;;;;;4972021;28;20497;-48
2022/04/20 05:50:07;;;;;;;3.97;2.92;;;8.30;84.30;;;;;;4990733;28;20050;-49
2022/04/20 05:52:33;;;;;;;9.90;2.85;;;8.20;84.60;;;;;;4991888;28;20085;-53
2022/04/20 05:54:58;;;;;;;5.63;2.97;;;8.50;84.60;;;;;;4981219;28;20038;-46
2022/04/20 05:57:24;;;;;;;4.38;2.90;;;8.50;83.40;;;;;;4972075;28;20037;-51
2022/04/20 05:59:50;;;;;;;12.00;3.47;;;8.70;83.60;;;;;;4971078;28;20165;-48
2022/04/20 06:02:15;;;;;;;7.75;3.35;;;8.50;83.40;;;;;;4954539;28;20372;-48
2022/04/20 06:04:41;;;;;;;6.18;3.28;;;8.40;83.90;;;;;;4953042;28;20491;-49
2022/04/20 06:07:07;;;;;;;3.25;2.65;;;8.50;84.30;;;;;;4952587;28;20036;-51
2022/04/20 06:09:32;;;;;;;7.53;3.25;;;8.60;84.30;;;;;;4952832;28;20020;-46
2022/04/20 06:11:58;;;;;;;3.55;2.50;;;8.70;84.50;;;;;;4952917;28;20023;-48
2022/04/20 06:14:24;;;;;;;3.00;2.70;;;8.90;83.60;;;;;;4953087;28;20078;-44
2022/04/20 06:16:50;;;;;;;6.22;3.08;;;9.40;82.30;;;;;;4955982;28;20164;-49
2022/04/20 06:19:15;;;;;;;3.75;2.83;;;9.60;79.40;;;;;;4956310;28;20510;-49
2022/04/20 06:21:41;;;;;;;4.63;3.17;;;9.90;78.70;;;;;;4956196;28;20395;-50
2022/04/20 06:24:07;;;;;;;3.20;2.72;;;10.00;78.60;;;;;;4956220;28;20019;-45
2022/04/20 06:26:32;;;;;;;12.88;3.00;;;9.90;78.80;;;;;;4956149;28;20398;-52
2022/04/20 06:28:58;;;;;;;7.05;3.50;;;9.90;79.00;;;;;;4955755;28;20089;-47
2022/04/20 06:31:23;;;;;;;6.82;2.95;;;9.90;79.30;;;;;;4956157;28;20039;-50
2022/04/20 06:33:49;;;;;;;5.38;3.10;;;10.00;78.90;;;;;;4956186;28;20031;-49
2022/04/20 06:36:14;;;;;;;5.40;3.00;;;10.20;79.70;;;;;;4956206;28;20102;-51
2022/04/20 06:38:40;;;;;;;5.68;3.10;;;10.30;78.40;;;;;;4955668;28;20035;-47
2022/04/20 06:41:05;;;;;;;4.95;2.60;;;10.30;78.70;;;;;;4955794;28;20043;-47
2022/04/20 06:43:32;;;;;;;7.82;2.63;;;10.30;78.50;;;;;;4955852;28;20032;-49
2022/04/20 06:45:57;;;;;;;5.90;2.83;;;10.30;79.00;;;;;;4970785;28;20038;-50
2022/04/20 06:48:23;;;;;;;3.47;2.83;;;10.90;78.30;;;;;;4955726;28;20035;-48
2022/04/20 06:50:50;;;;;;;8.70;2.90;;;11.30;75.10;;;;;;4970813;28;20031;-47
2022/04/20 06:58:44;;;;;;;7.72;2.60;;;12.00;74.30;;;;;;4956688;28;20569;-56
2022/04/20 07:01:09;;;;;;;5.30;2.63;;;12.30;74.50;;;;;;4955899;28;20079;-48
2022/04/20 07:03:36;;;;;;;3.28;2.90;;;12.40;73.40;;;;;;4956132;28;20027;-53
2022/04/20 07:06:03;;;;;;;3.95;2.72;;;12.50;73.10;;;;;;4960952;28;20046;-54
2022/04/20 07:08:30;;;;;;;4.75;2.90;;;12.40;72.20;;;;;;4955557;28;20095;-50
2022/04/20 07:10:56;;;;;;;4.57;2.80;;;12.30;73.10;;;;;;4955765;28;20031;-50
2022/04/20 07:13:22;;;;;;;2.72;2.42;;;12.30;72.80;;;;;;4955749;28;20094;-47
2022/04/20 07:15:48;;;;;;;7.15;2.30;;;12.10;72.80;;;;;;4955533;28;20031;-49
2022/04/20 07:18:14;;;;;;;10.40;2.70;;;12.20;73.80;;;;;;4955300;28;20115;-50
2022/04/20 07:20:40;;;;;;;6.55;2.70;;;12.60;72.20;;;;;;4955355;28;20023;-49
2022/04/20 07:23:06;;;;;;;3.10;2.80;;;12.90;70.60;;;;;;4955616;28;20029;-50
2022/04/20 07:25:32;;;;;;;3.22;2.45;;;12.60;70.80;;;;;;4955134;28;20027;-52
2022/04/20 07:27:58;;;;;;;6.95;2.78;;;12.40;71.00;;;;;;4955602;28;20550;-49
2022/04/20 07:30:25;;;;;;;5.72;2.95;;;12.40;71.50;;;;;;4955232;28;20055;-51
2022/04/20 07:32:51;;;;;;;3.83;3.00;;;12.30;71.90;;;;;;4955262;28;20019;-49
2022/04/20 07:35:16;;;;;;;10.27;3.10;;;12.40;71.50;;;;;;4955289;28;20023;-47
2022/04/20 07:37:42;;;;;;;10.60;4.10;;;12.50;71.40;;;;;;4954974;28;20035;-47
2022/04/20 07:40:08;;;;;;;5.85;2.88;;;12.70;70.40;;;;;;4955244;28;20499;-49
2022/04/20 07:42:36;;;;;;;4.90;2.72;;;13.10;70.70;;;;;;4958109;28;20292;-50
2022/04/20 07:45:02;;;;;;;10.00;2.60;;;13.40;68.70;;;;;;4973004;28;20022;-49
2022/04/20 07:47:28;;;;;;;3.63;2.97;;;13.40;69.40;;;;;;4966448;28;20030;-47
2022/04/20 07:50:40;;;;;;;5.15;2.65;;;13.40;69.10;;;;;;4961547;28;20023;-50
2022/04/20 07:52:45;;;;;;;10.90;2.95;;;13.70;69.60;;;;;;4957881;28;20066;-49
2022/04/20 07:55:16;;;;;;;3.05;2.47;;;13.70;68.30;;;;;;4987644;28;20450;-47
2022/04/20 07:57:43;;;;;;;4.82;2.80;;;14.60;67.40;;;;;;4973992;28;20035;-51
2022/04/20 08:00:10;;;;;;;6.65;2.78;;;15.00;63.60;;;;;;4958324;28;20066;-47
2022/04/20 08:02:35;;;;;;;2.78;2.33;;;15.30;59.50;;;;;;4980305;28;20054;-48
2022/04/20 08:05:01;;;;;;;2.58;2.17;;;15.30;59.00;;;;;;4984555;28;20046;-47
2022/04/20 08:07:27;;;;;;;2.97;2.10;;;15.10;60.50;;;;;;4971895;28;20030;-49
2022/04/20 08:09:53;;;;;;;9.93;2.97;;;15.20;58.60;;;;;;4993336;28;20022;-46
2022/04/20 08:12:18;;;;;;;2.65;2.13;;;15.20;59.00;;;;;;4986160;28;20498;-51
2022/04/20 08:14:44;;;;;;;4.18;2.80;;;15.10;57.90;;;;;;4954936;28;20035;-48
2022/04/20 08:17:09;;;;;;;4.47;2.40;;;15.30;59.00;;;;;;4955782;28;20035;-52
2022/04/20 08:19:35;;;;;;;7.72;2.90;;;14.80;57.60;;;;;;4970780;28;20406;-52
2022/04/20 08:22:01;;;;;;;2.38;2.17;;;15.50;57.80;;;;;;4993206;28;20022;-47
2022/04/20 08:24:26;;;;;;;5.80;2.67;;;15.20;58.30;;;;;;4983746;28;20030;-49
2022/04/20 08:26:52;;;;;;;5.25;2.78;;;15.30;58.20;;;;;;4971752;28;20030;-49
2022/04/20 08:29:17;;;;;;;4.13;2.53;;;15.60;57.50;;;;;;4972039;28;20022;-51
2022/04/20 08:31:43;;;;;;;5.75;2.47;;;15.70;56.90;;;;;;4973238;28;20031;-45
2022/04/20 08:34:08;;;;;;;2.67;2.20;;;15.50;56.40;;;;;;4973382;28;20391;-48
2022/04/20 08:36:34;;;;;;;15.00;10.63;;;16.10;56.60;;;;;;4971616;28;20026;-48
2022/04/20 08:39:00;;;;;;;22.42;16.85;;;15.90;56.60;;;;;;4961255;28;20102;-49
2022/04/20 08:41:26;;;;;;;9.07;3.75;;;16.30;56.30;;;;;;4990528;28;20038;-47
2022/04/20 08:43:52;;;;;;;7.25;2.45;;;16.60;57.30;;;;;;4987833;28;20121;-48
2022/04/20 08:46:18;;;;;;;3.05;2.63;;;16.80;55.20;;;;;;4968038;28;20031;-51
2022/04/20 08:48:44;;;;;;;2.50;2.30;;;16.50;55.70;;;;;;4974246;28;20037;-49
2022/04/20 08:51:09;;;;;;;2.30;2.00;;;16.70;54.50;;;;;;4992783;28;20034;-50
2022/04/20 08:53:36;;;;;;;4.07;2.42;;;16.70;54.10;;;;;;4981671;28;20038;-49
2022/04/20 08:58:48;;;;;;;14.03;3.50;;;15.90;55.80;;;;;;4981019;28;20101;-49
2022/04/20 09:01:15;;;;;;;3.15;2.45;;;15.80;56.20;;;;;;4980241;28;20106;-48
2022/04/20 09:03:43;;;;;;;5.78;2.35;;;16.20;56.30;;;;;;4992299;28;20418;-46
2022/04/20 09:06:09;;;;;;;3.97;3.15;;;16.00;54.90;;;;;;4973610;28;20023;-51
2022/04/20 09:08:36;;;;;;;3.13;2.40;;;15.30;56.00;;;;;;4963656;28;20023;-49
2022/04/20 09:11:01;;;;;;;3.53;2.63;;;14.90;57.20;;;;;;4963768;28;20031;-47
2022/04/20 09:13:33;;;;;;;6.57;2.80;;;14.80;57.20;;;;;;4992837;28;20037;-47
2022/04/20 09:16:05;;;;;;;3.20;2.90;;;15.00;57.30;;;;;;4981252;28;20032;-50
2022/04/20 09:18:30;;;;;;;4.97;2.63;;;15.30;56.70;;;;;;4956532;28;20030;-52
2022/04/20 09:21:07;;;;;;;4.38;2.90;;;15.20;56.10;;;;;;4969585;28;20034;-49
2022/04/20 09:23:34;;;;;;;3.72;2.60;;;15.10;54.70;;;;;;4974861;28;20036;-51
2022/04/20 09:26:08;;;;;;;4.07;2.90;;;15.00;54.90;;;;;;4983131;28;20101;-47
2022/04/20 09:28:34;;;;;;;4.63;2.30;;;14.90;55.80;;;;;;4961867;28;20110;-48
2022/04/20 09:30:59;;;;;;;2.83;2.60;;;14.60;55.90;;;;;;4972713;28;20398;-51
2022/04/20 09:33:50;;;;;;;5.80;2.72;;;14.50;54.40;;;;;;4975962;28;20018;-50
2022/04/20 09:36:42;;;;;;;3.78;2.58;;;14.50;56.10;;;;;;4992535;28;20089;-49
2022/04/20 09:39:09;;;;;;;3.20;2.90;;;14.70;56.50;;;;;;4975039;28;20021;-47
2022/04/20 09:41:55;;;;;;;3.97;2.60;;;14.80;55.40;;;;;;4972321;28;20027;-48
2022/04/20 09:44:22;;;;;;;9.18;2.00;;;15.20;55.20;;;;;;4953793;28;20074;-47
2022/04/20 09:49:57;;;;;;;7.03;3.80;;;14.90;55.00;;;;;;4962265;28;20036;-50
2022/04/20 09:52:42;;;;;;;13.45;7.07;;;14.80;54.80;;;;;;4996040;28;20035;-49
2022/04/20 09:55:11;;;;;;;13.68;8.88;;;14.80;54.40;;;;;;4996347;28;20512;-46
2022/04/20 09:57:37;;;;;;;5.97;2.15;;;14.60;53.60;;;;;;4995450;28;20038;-48
2022/04/20 10:00:15;;;;;;;2.53;2.30;;;14.70;55.50;;;;;;4989142;28;20023;-48
2022/04/20 10:02:51;;;;;;;4.22;2.50;;;14.70;54.20;;;;;;4977090;28;20030;-49
2022/04/20 10:05:17;;;;;;;2.58;2.38;;;14.70;54.30;;;;;;4991869;28;20022;-50
2022/04/20 10:07:43;;;;;;;5.32;2.83;;;14.40;54.30;;;;;;4993987;28;20057;-48
2022/04/20 10:10:10;;;;;;;3.10;2.15;;;14.50;55.30;;;;;;4995391;28;20065;-47
2022/04/20 10:12:39;;;;;;;13.52;2.28;;;14.60;56.40;;;;;;4995488;28;20030;-48
2022/04/20 10:17:54;;;;;;;2.60;2.40;;;14.70;54.20;;;;;;4995384;28;20068;-46
2022/04/20 10:20:20;;;;;;;6.15;1.90;;;14.40;53.90;;;;;;4995474;28;20413;-48
2022/04/20 10:22:47;;;;;;;2.30;2.05;;;14.40;54.20;;;;;;4995511;28;20018;-47
2022/04/20 10:25:14;;;;;;;4.80;2.50;;;14.40;54.60;;;;;;4995566;28;20053;-49
2022/04/20 10:27:57;;;;;;;4.55;2.28;;;14.40;55.40;;;;;;4995633;28;20035;-47
2022/04/20 10:30:58;;;;;;;9.50;2.30;;;14.50;55.80;;;;;;4996006;28;20035;-51
2022/04/20 10:33:25;;;;;;;2.75;2.28;;;14.60;55.80;;;;;;4997698;28;20047;-50
2022/04/20 10:35:59;;;;;;;3.55;2.50;;;14.50;55.30;;;;;;4997514;28;20033;-46
2022/04/20 10:38:28;;;;;;;2.00;1.90;;;14.40;54.50;;;;;;4997302;28;20026;-48
2022/04/20 10:41:17;;;;;;;4.95;2.20;;;14.40;53.80;;;;;;4995764;28;20391;-51
2022/04/20 10:43:44;;;;;;;2.13;2.00;;;14.40;53.60;;;;;;4995290;28;20386;-48
2022/04/20 10:46:18;;;;;;;3.65;2.20;;;14.50;54.60;;;;;;4994868;28;20402;-48
2022/04/20 10:48:51;;;;;;;3.35;1.85;;;14.60;53.30;;;;;;4994556;28;20026;-48
2022/04/20 10:51:22;;;;;;;6.43;1.95;;;14.50;53.00;;;;;;4994737;28;20080;-47
2022/04/20 10:53:49;;;;;;;1.85;1.75;;;14.60;54.20;;;;;;4995254;28;20031;-51
2022/04/20 10:56:17;;;;;;;7.18;2.30;;;14.60;54.00;;;;;;4994976;28;20029;-50
2022/04/20 10:59:04;;;;;;;4.60;2.22;;;14.70;54.70;;;;;;4994567;28;20109;-48
2022/04/20 11:01:30;;;;;;;2.08;1.92;;;14.80;53.40;;;;;;4993769;28;20027;-48
2022/04/20 11:03:58;;;;;;;3.15;1.98;;;14.80;53.70;;;;;;4994318;28;20018;-53
2022/04/20 11:06:28;;;;;;;2.05;1.80;;;14.80;54.00;;;;;;4994417;28;20073;-46
2022/04/20 11:09:00;;;;;;;5.95;2.10;;;14.80;54.00;;;;;;4993836;28;20026;-49
2022/04/20 11:20:08;;;;;;;3.15;2.33;;;14.70;52.40;;;;;;4994053;28;20069;-49
2022/04/20 11:22:44;;;;;;;2.08;1.45;;;14.60;53.50;;;;;;4994194;28;20038;-48
2022/04/20 11:25:11;;;;;;;2.22;2.13;;;14.70;53.70;;;;;;5009114;28;20053;-50
2022/04/20 11:27:37;;;;;;;2.33;1.73;;;14.80;53.90;;;;;;4993614;28;20035;-48
2022/04/20 11:30:04;;;;;;;3.38;2.03;;;14.90;52.70;;;;;;4993207;28;20422;-48
2022/04/20 11:32:31;;;;;;;4.43;2.08;;;15.00;53.50;;;;;;4993836;28;20033;-50
2022/04/20 11:35:07;;;;;;;4.80;2.17;;;14.90;52.30;;;;;;4971923;28;20023;-48
2022/04/20 11:37:37;;;;;;;3.13;1.80;;;14.80;51.90;;;;;;4993400;28;20041;-48
2022/04/20 11:40:13;;;;;;;8.38;2.08;;;14.80;51.80;;;;;;4984766;28;20035;-49
2022/04/20 11:42:42;;;;;;;3.88;1.58;;;14.80;53.20;;;;;;4974337;28;20023;-46
2022/04/20 11:45:08;;;;;;;3.20;1.77;;;14.80;52.60;;;;;;4974314;28;20030;-51
2022/04/20 11:47:43;;;;;;;1.80;1.70;;;14.90;51.90;;;;;;4974058;28;20032;-53
2022/04/20 11:50:09;;;;;;;3.47;1.97;;;14.90;51.80;;;;;;4973686;28;20027;-47
2022/04/20 11:52:34;;;;;;;4.55;2.33;;;14.80;51.50;;;;;;4985159;28;20292;-47
2022/04/20 11:55:05;;;;;;;1.60;1.50;;;14.90;52.30;;;;;;4993364;28;20049;-48
2022/04/20 11:57:30;;;;;;;1.80;1.70;;;15.00;52.00;;;;;;4993341;28;20059;-44
2022/04/20 11:59:59;;;;;;;1.90;1.80;;;14.80;51.70;;;;;;4993118;28;20023;-46
2022/04/20 12:02:25;;;;;;;1.92;1.77;;;14.80;52.80;;;;;;4964802;28;20422;-44
2022/04/20 12:05:08;;;;;;;2.38;2.13;;;15.00;52.30;;;;;;4993221;28;20070;-47
2022/04/20 12:07:34;;;;;;;6.63;1.50;;;15.00;51.90;;;;;;4983621;28;20045;-43
2022/04/20 12:10:02;;;;;;;2.25;1.80;;;15.20;53.50;;;;;;4973332;28;20030;-44
2022/04/20 12:12:30;;;;;;;3.85;1.65;;;15.10;51.20;;;;;;4972729;28;20060;-43
2022/04/20 12:15:05;;;;;;;3.40;1.58;;;15.30;51.60;;;;;;4973849;28;20041;-44
2022/04/20 12:17:31;;;;;;;1.80;1.70;;;15.30;51.20;;;;;;4972972;28;20402;-43
2022/04/20 12:19:57;;;;;;;3.78;1.95;;;15.20;50.90;;;;;;4973587;28;20027;-52
2022/04/20 12:22:22;;;;;;;2.72;2.10;;;15.20;50.30;;;;;;4971910;28;20027;-49
2022/04/20 12:25:06;;;;;;;3.63;1.73;;;15.20;50.80;;;;;;4973517;28;20033;-48
2022/04/20 12:27:32;;;;;;;5.18;2.03;;;15.30;51.30;;;;;;4969056;28;20121;-46
2022/04/20 12:29:58;;;;;;;1.67;1.58;;;15.30;50.30;;;;;;4955114;28;20035;-46
2022/04/20 12:32:35;;;;;;;3.65;1.90;;;15.30;51.60;;;;;;4954058;28;20089;-48
2022/04/20 12:35:05;;;;;;;5.88;1.98;;;15.40;51.00;;;;;;4954111;28;20031;-48
2022/04/20 12:37:31;;;;;;;4.07;1.98;;;15.40;49.70;;;;;;4953955;28;20567;-47
2022/04/20 12:40:19;;;;;;;3.22;2.35;;;15.40;50.50;;;;;;4954305;28;20024;-47
2022/04/20 12:43:05;;;;;;;4.40;1.77;;;15.60;51.00;;;;;;4970834;28;20031;-49
2022/04/20 12:45:32;;;;;;;4.90;1.83;;;15.50;50.20;;;;;;4955073;28;20023;-50
2022/04/20 12:48:04;;;;;;;3.25;1.85;;;15.60;51.00;;;;;;4970937;28;20032;-52
2022/04/20 12:50:41;;;;;;;4.90;1.45;;;15.60;50.60;;;;;;4955916;28;20035;-49
2022/04/20 12:53:07;;;;;;;1.65;1.55;;;15.60;50.50;;;;;;4955365;28;20480;-48
2022/04/20 13:04:15;;;;;;;28.13;16.58;;;15.80;50.40;;;;;;4955639;29;20078;-47
2022/04/20 13:06:41;;;;;;;5.47;2.72;;;15.80;50.00;;;;;;4955292;29;20047;-49
2022/04/20 13:09:06;;;;;;;6.43;2.17;;;15.80;50.00;;;;;;4954958;28;20035;-48
2022/04/20 13:11:32;;;;;;;1.60;1.50;;;15.80;50.70;;;;;;4955202;28;20032;-48
2022/04/20 13:13:58;;;;;;;1.60;1.50;;;15.90;49.80;;;;;;4955474;28;20023;-46
2022/04/20 13:16:24;;;;;;;2.10;1.70;;;15.90;50.00;;;;;;4989873;23;20163;-50
2022/04/20 13:18:51;;;;;;;1.70;1.60;;;15.90;50.40;;;;;;4972070;28;20049;-52
2022/04/20 13:21:16;;;;;;;5.45;1.88;;;15.80;49.40;;;;;;4972903;28;20053;-46
2022/04/20 13:23:42;;;;;;;2.20;2.00;;;15.90;50.70;;;;;;4973119;28;20054;-48
2022/04/20 13:28:51;;;;;;;3.75;1.98;;;16.10;50.30;;;;;;4976453;28;20088;-49
2022/04/20 13:31:17;;;;;;;3.42;1.80;;;16.10;50.10;;;;;;4976572;28;20026;-48
2022/04/20 13:33:43;;;;;;;2.92;1.55;;;16.10;50.90;;;;;;4976450;28;20465;-47